U26942 / G-EZAG 7700 Squawk Report (13th of November, 2017)

Aircraft A319 Reg No. G-EZAG Age 11 years old
Model A319 Jet engines 2 First flight 09-03-06
Registered 29-03-06 Rollout 03-06 Delivered 29-03-06
Construction No. 2727 Line No. N/A Series 111
ADSHEX 400D91 Airline name EasyJet Owner N/A
Airfield based Luton~Beds~G First tracked 2011-04-01 15:43:02

Flight history for G-EZAG

Route Flight No Date Playback
Barcelona (BCN) - Malpensa (MXP) U22768 2017-11-23 22:20:00
Malpensa (MXP) - Barcelona (BCN) U22767 2017-11-23 20:23:00
Stuttgart (STR) - Malpensa (MXP) U22572 2017-11-23 19:00:00
Malpensa (MXP) - Stuttgart (STR) U22571 2017-11-23 17:06:00
Granada (GRX) - Malpensa (MXP) U22512 2017-11-23 11:32:00
Malpensa (MXP) - Granada (GRX) U22511 2017-11-23 08:48:00
Luton (LTN) - Malpensa (MXP) U22285 2017-11-23 06:44:00
Saint Exupery (LYS) - Luton (LTN) U22426 2017-11-22 16:37:00
Luton (LTN) - Saint Exupery (LYS) U22425 2017-11-22 15:17:00
Mogador Airport (ESU) - Luton (LTN) U22040 2017-11-21 19:47:00
Luton (LTN) - Mogador Airport (ESU) U22039 2017-11-21 15:14:00
Nantes Atlantique (NTE) - Luton (LTN) U22012 2017-11-20 20:44:00
Luton (LTN) - Nantes Atlantique (NTE) U22011 2017-11-20 18:33:00
Blagnac (TLS) - Luton (LTN) U22078 2017-11-20 17:38:00
Luton (LTN) - Blagnac (TLS) U22077 2017-11-20 08:55:00
Malpensa (MXP) - Luton (LTN) U22286 2017-11-20 07:35:00
Luton (LTN) - Malpensa (MXP) U22285 2017-11-19 20:24:00
Geneve Cointrin (GVA) - Luton (LTN) U22060 2017-11-19 18:58:00
Luton (LTN) - Geneve Cointrin (GVA) U22059 2017-11-19 15:06:00
Schiphol (AMS) - Luton (LTN) U22154 2017-11-18 15:32:00
Time Lat Lon Altitude Heading Speed Vertical Rate
2017-11-13 22:13:33 GMT 55.94992 -3.36221 0 115 1 0
2017-11-13 22:13:24 GMT 55.94995 -3.36231 0 115 3 0
2017-11-13 22:13:13 GMT 55.95003 -3.36259 0 118 5 0
2017-11-13 22:13:02 GMT 55.95017 -3.36313 0 118 6 0
2017-11-13 22:12:52 GMT 55.95028 -3.36350 0 132 5 0
2017-11-13 22:12:41 GMT 55.95037 -3.36370 0 146 0 0
2017-11-13 22:12:12 GMT 55.95037 -3.36371 0 146 1 0
2017-11-13 22:12:02 GMT 55.95044 -3.36377 0 146 3 0
2017-11-13 22:11:51 GMT 55.95070 -3.36419 0 106 10 0
2017-11-13 22:11:42 GMT 55.95068 -3.36484 0 59 10 0
2017-11-13 22:10:27 GMT 55.94674 -3.37644 0 59 18 0
2017-11-13 22:10:17 GMT 55.94641 -3.37740 0 59 15 0
2017-11-13 22:10:08 GMT 55.94615 -3.37817 0 59 12 0
2017-11-13 22:09:59 GMT 55.94591 -3.37894 0 84 11 0
2017-11-13 22:09:50 GMT 55.94604 -3.37961 0 146 12 0
2017-11-13 22:09:47 GMT 55.94618 -3.37975 0 149 15 0
2017-11-13 22:09:36 GMT 55.94678 -3.38042 0 151 14 0
2017-11-13 22:09:26 GMT 55.94735 -3.38025 0 233 18 0
2017-11-13 22:09:16 GMT 55.94789 -3.37877 0 239 33 0
2017-11-13 22:09:07 GMT 55.94885 -3.37583 0 239 62 0
2017-11-13 22:08:57 GMT 55.95053 -3.37091 0 239 105 0
2017-11-13 22:08:53 GMT 55.95216 -3.36619 0 239 115 0
2017-11-13 22:08:49 GMT 55.95268 -3.36465 50 239 123 -640
2017-11-13 22:08:46 GMT 55.95360 -3.36190 75 239 123 -704
2017-11-13 22:08:35 GMT 55.95699 -3.35200 200 239 123 -640
2017-11-13 22:08:28 GMT 55.95868 -3.34688 275 240 121 -640
2017-11-13 22:08:25 GMT 55.95961 -3.34414 325 240 121 -512
2017-11-13 22:08:16 GMT 55.96263 -3.33521 425 239 120 -640
2017-11-13 22:08:08 GMT 55.96445 -3.32972 500 240 121 -576
2017-11-13 22:08:05 GMT 55.96568 -3.32611 550 239 120 -576
2017-11-13 22:08:02 GMT 55.96637 -3.32403 575 239 120 -704
2017-11-13 22:07:59 GMT 55.96747 -3.32079 625 239 119 -704
2017-11-13 22:07:57 GMT 55.96783 -3.31970 625 239 119 -512
2017-11-13 22:07:54 GMT 55.96875 -3.31704 675 239 119 -640
2017-11-13 22:07:48 GMT 55.97036 -3.31238 725 239 119 -640
2017-11-13 22:07:46 GMT 55.97086 -3.31096 750 239 119 -640
2017-11-13 22:07:44 GMT 55.97154 -3.30897 775 239 119 -576
2017-11-13 22:07:42 GMT 55.97214 -3.30722 775 240 118 -576
2017-11-13 22:07:38 GMT 55.97328 -3.30381 825 240 118 -640
2017-11-13 22:07:36 GMT 55.97383 -3.30214 850 240 118 -640
2017-11-13 22:07:34 GMT 55.97447 -3.30023 875 239 117 -640
2017-11-13 22:07:31 GMT 55.97534 -3.29756 900 239 117 -576
2017-11-13 22:07:28 GMT 55.97603 -3.29557 950 239 118 -768
2017-11-13 22:07:24 GMT 55.97745 -3.29149 1,000 239 117 -576
2017-11-13 22:07:21 GMT 55.97790 -3.29024 1,025 239 117 -640
2017-11-13 22:07:16 GMT 55.97962 -3.28508 1,075 239 117 -640
2017-11-13 22:07:13 GMT 55.98038 -3.28275 1,100 240 118 -640
2017-11-13 22:07:11 GMT 55.98074 -3.28174 1,125 240 118 -640
2017-11-13 22:07:05 GMT 55.98248 -3.27659 1,200 240 117 -640
2017-11-13 22:07:01 GMT 55.98349 -3.27351 1,225 239 117 -704
2017-11-13 22:06:54 GMT 55.98541 -3.26785 1,300 239 117 -576
2017-11-13 22:06:51 GMT 55.98638 -3.26500 1,325 240 118 -512
2017-11-13 22:06:45 GMT 55.98825 -3.25944 1,400 239 117 -576
2017-11-13 22:06:41 GMT 55.98926 -3.25645 1,425 239 117 -512
2017-11-13 22:06:35 GMT 55.99118 -3.25079 1,500 240 116 -512
2017-11-13 22:06:30 GMT 55.99219 -3.24775 1,525 240 115 -704
2017-11-13 22:06:24 GMT 55.99396 -3.24251 1,625 239 115 -832
2017-11-13 22:06:22 GMT 55.99461 -3.24063 1,650 239 114 -704
2017-11-13 22:06:20 GMT 55.99494 -3.23959 1,650 240 115 -512
2017-11-13 22:06:15 GMT 55.99649 -3.23506 1,700 240 116 -768
2017-11-13 22:06:12 GMT 55.99750 -3.23204 1,750 240 116 -704
2017-11-13 22:06:10 GMT 55.99777 -3.23123 1,750 240 117 -704
2017-11-13 22:06:03 GMT 55.99974 -3.22535 1,850 240 116 -640
2017-11-13 22:06:01 GMT 56.00057 -3.22291 1,875 239 117 -576
2017-11-13 22:05:53 GMT 56.00253 -3.21702 1,925 239 122 -640
2017-11-13 22:05:50 GMT 56.00354 -3.21408 1,950 239 126 -512
2017-11-13 22:05:43 GMT 56.00565 -3.20792 2,025 240 130 -512
2017-11-13 22:05:40 GMT 56.00697 -3.20401 2,050 239 131 -640
2017-11-13 22:05:33 GMT 56.00885 -3.19835 2,125 240 132 -640
2017-11-13 22:05:30 GMT 56.00977 -3.19561 2,150 240 132 -768
2017-11-13 22:05:23 GMT 56.01196 -3.18903 2,250 239 132 -704
2017-11-13 22:05:20 GMT 56.01291 -3.18629 2,275 239 133 -704
2017-11-13 22:05:12 GMT 56.01540 -3.17879 2,375 240 136 -768
2017-11-13 22:05:09 GMT 56.01617 -3.17655 2,400 239 136 -768
2017-11-13 22:05:04 GMT 56.01808 -3.17093 2,500 240 138 -768
2017-11-13 22:05:02 GMT 56.01869 -3.16906 2,500 240 138 -768
2017-11-13 22:05:00 GMT 56.01952 -3.16655 2,550 240 139 -896
2017-11-13 22:04:54 GMT 56.02134 -3.16106 2,625 239 141 -832
2017-11-13 22:04:52 GMT 56.02226 -3.15832 2,650 240 142 -832
2017-11-13 22:04:49 GMT 56.02295 -3.15632 2,700 240 142 -896
2017-11-13 22:04:43 GMT 56.02487 -3.15050 2,800 239 144 -832
2017-11-13 22:04:43 GMT 56.02487 -3.15050 2,800 239 144 -832
2017-11-13 22:04:41 GMT 56.02547 -3.14875 2,825 239 145 -832
2017-11-13 22:04:39 GMT 56.02636 -3.14612 2,850 239 146 -768
2017-11-13 22:04:32 GMT 56.02911 -3.13814 2,925 239 152 -320
2017-11-13 22:04:29 GMT 56.02995 -3.13565 2,925 239 153 -384
2017-11-13 22:04:23 GMT 56.03224 -3.12894 2,975 239 153 0
2017-11-13 22:04:21 GMT 56.03293 -3.12690 2,975 239 152 -64
2017-11-13 22:04:18 GMT 56.03389 -3.12411 2,975 239 152 -128
2017-11-13 22:04:14 GMT 56.03549 -3.11920 2,975 239 152 -128
2017-11-13 22:04:10 GMT 56.03677 -3.11554 3,000 240 153 -192
2017-11-13 22:04:08 GMT 56.03744 -3.11342 3,000 240 153 -192
2017-11-13 22:04:03 GMT 56.03966 -3.10672 3,025 240 153 -256
2017-11-13 22:04:00 GMT 56.04061 -3.10398 3,050 240 153 -256
2017-11-13 22:03:58 GMT 56.04112 -3.10231 3,050 240 152 -256
2017-11-13 22:03:53 GMT 56.04289 -3.09694 3,075 240 153 -320
2017-11-13 22:03:50 GMT 56.04433 -3.09248 3,100 240 153 -320
2017-11-13 22:03:48 GMT 56.04475 -3.09111 3,100 240 153 -320
2017-11-13 22:03:42 GMT 56.04694 -3.08450 3,125 240 154 -320
2017-11-13 22:03:38 GMT 56.04840 -3.08008 3,150 239 155 -320
2017-11-13 22:03:33 GMT 56.05029 -3.07446 3,175 238 155 -320
2017-11-13 22:03:30 GMT 56.05179 -3.07026 3,200 238 156 -320
2017-11-13 22:03:28 GMT 56.05211 -3.06939 3,200 237 156 -320
2017-11-13 22:03:22 GMT 56.05453 -3.06287 3,225 236 157 -256
2017-11-13 22:03:18 GMT 56.05627 -3.05836 3,250 234 158 -320
2017-11-13 22:03:12 GMT 56.05870 -3.05262 3,275 232 158 -256
2017-11-13 22:03:09 GMT 56.06025 -3.04914 3,300 231 159 -256
2017-11-13 22:03:07 GMT 56.06104 -3.04733 3,300 231 159 -256
2017-11-13 22:03:02 GMT 56.06346 -3.04246 3,325 227 162 -384
2017-11-13 22:02:59 GMT 56.06519 -3.03918 3,350 225 164 -448
2017-11-13 22:02:57 GMT 56.06603 -3.03772 3,350 224 164 -448
2017-11-13 22:02:52 GMT 56.06900 -3.03314 3,400 214 173 -448
2017-11-13 22:02:48 GMT 56.07225 -3.02923 3,425 207 178 -448
2017-11-13 22:02:42 GMT 56.07631 -3.02605 3,475 192 193 -384
2017-11-13 22:02:39 GMT 56.07934 -3.02442 3,500 189 196 -384
2017-11-13 22:02:37 GMT 56.08032 -3.02407 3,500 186 199 -448
2017-11-13 22:02:32 GMT 56.08530 -3.02381 3,550 168 218 -704
2017-11-13 22:02:27 GMT 56.09015 -3.02574 3,600 157 230 -896
2017-11-13 22:02:22 GMT 56.09528 -3.03023 3,675 145 241 -832
2017-11-13 22:02:17 GMT 56.09985 -3.03655 3,750 136 249 -832
2017-11-13 22:02:11 GMT 56.10466 -3.04604 3,825 125 257 -832
2017-11-13 22:02:06 GMT 56.10732 -3.05351 3,900 115 263 -704
2017-11-13 22:02:01 GMT 56.10979 -3.06335 3,950 106 268 -576
2017-11-13 22:01:56 GMT 56.11151 -3.07523 4,000 96 272 -640
2017-11-13 22:01:56 GMT 56.11151 -3.07523 4,000 96 272 -640
2017-11-13 22:01:52 GMT 56.11202 -3.08484 4,050 90 274 -640
2017-11-13 22:01:50 GMT 56.11207 -3.08776 4,075 88 274 -640
2017-11-13 22:01:45 GMT 56.11160 -3.09832 4,125 80 275 -704
2017-11-13 22:01:45 GMT 56.11160 -3.09832 4,125 78 274 -768
2017-11-13 22:01:41 GMT 56.11039 -3.10827 4,175 71 274 -960
2017-11-13 22:01:36 GMT 56.10783 -3.11995 4,275 61 270 -1344
2017-11-13 22:01:33 GMT 56.10541 -3.12784 4,375 58 268 -1280
2017-11-13 22:01:31 GMT 56.10513 -3.12870 4,375 58 268 -1280
2017-11-13 22:01:29 GMT 56.10347 -3.13352 4,425 58 268 -1280
2017-11-13 22:01:25 GMT 56.10109 -3.14034 4,500 58 268 -1280
2017-11-13 22:01:21 GMT 56.09843 -3.14800 4,600 58 268 -1280
2017-11-13 22:01:16 GMT 56.09477 -3.15849 4,700 57 269 -1088
2017-11-13 22:01:14 GMT 56.09391 -3.16089 4,725 57 269 -1088
2017-11-13 22:01:11 GMT 56.09166 -3.16731 4,800 57 270 -960
2017-11-13 22:01:04 GMT 56.08753 -3.17900 4,900 57 271 -640
2017-11-13 22:01:01 GMT 56.08516 -3.18578 4,925 57 271 -384
2017-11-13 22:00:57 GMT 56.08228 -3.19386 4,975 56 274 -64
2017-11-13 22:00:54 GMT 56.08055 -3.19874 4,975 57 272 -64
2017-11-13 22:00:51 GMT 56.07804 -3.20560 4,975 57 272 0
2017-11-13 22:00:49 GMT 56.07706 -3.20842 4,975 57 272 0
2017-11-13 22:00:45 GMT 56.07440 -3.21566 4,975 56 273 64
2017-11-13 22:00:43 GMT 56.07208 -3.22200 4,975 56 272 64
2017-11-13 22:00:41 GMT 56.07097 -3.22499 4,975 56 273 64
2017-11-13 22:00:38 GMT 56.06891 -3.23049 4,975 56 273 0
2017-11-13 22:00:35 GMT 56.06712 -3.23531 4,975 56 274 0
2017-11-13 22:00:33 GMT 56.06561 -3.23942 4,975 56 274 0
2017-11-13 22:00:31 GMT 56.06412 -3.24337 4,975 56 274 -64
2017-11-13 22:00:29 GMT 56.06337 -3.24543 4,975 56 274 -64
2017-11-13 22:00:27 GMT 56.06204 -3.24904 4,975 56 274 -64
2017-11-13 22:00:23 GMT 56.05858 -3.25822 4,975 56 274 0
2017-11-13 22:00:19 GMT 56.05618 -3.26469 4,975 56 273 -64
2017-11-13 22:00:15 GMT 56.05280 -3.27393 4,975 57 273 0
2017-11-13 22:00:12 GMT 56.05104 -3.27873 4,975 57 274 0
2017-11-13 22:00:09 GMT 56.04889 -3.28491 4,975 59 274 64
2017-11-13 22:00:04 GMT 56.04606 -3.29367 4,975 62 276 0
2017-11-13 22:00:01 GMT 56.04363 -3.30251 4,975 66 277 -64
2017-11-13 21:59:59 GMT 56.04309 -3.30472 4,975 68 278 0
2017-11-13 21:59:53 GMT 56.03984 -3.31929 4,975 69 279 -64
2017-11-13 21:59:49 GMT 56.03809 -3.32757 4,975 68 281 -192
2017-11-13 21:59:44 GMT 56.03628 -3.33590 5,000 69 282 -192
2017-11-13 21:59:41 GMT 56.03511 -3.34148 5,000 69 283 -128
2017-11-13 21:59:39 GMT 56.03394 -3.34708 5,025 69 283 0
2017-11-13 21:59:37 GMT 56.03316 -3.35083 5,000 69 283 64
2017-11-13 21:59:32 GMT 56.03041 -3.36498 5,000 72 286 192
2017-11-13 21:59:30 GMT 56.02990 -3.36791 4,975 74 290 128
2017-11-13 21:59:28 GMT 56.02920 -3.37237 4,975 77 294 128
2017-11-13 21:59:25 GMT 56.02812 -3.38038 4,975 81 298 64
2017-11-13 21:59:23 GMT 56.02790 -3.38302 4,975 83 299 64
2017-11-13 21:59:21 GMT 56.02753 -3.38877 4,975 86 303 64
2017-11-13 21:59:19 GMT 56.02739 -3.39460 4,975 89 306 64
2017-11-13 21:59:17 GMT 56.02739 -3.39844 4,975 93 308 64
2017-11-13 21:59:12 GMT 56.02822 -3.41306 4,975 101 313 0
2017-11-13 21:59:09 GMT 56.02904 -3.41949 4,975 107 313 0
2017-11-13 21:59:07 GMT 56.02972 -3.42366 4,975 110 312 0
2017-11-13 21:59:04 GMT 56.03192 -3.43398 4,975 115 310 0
2017-11-13 21:59:02 GMT 56.03192 -3.43398 4,975 116 310 0
2017-11-13 21:58:59 GMT 56.03442 -3.44276 4,975 121 308 64
2017-11-13 21:58:57 GMT 56.03604 -3.44746 4,975 124 306 64
2017-11-13 21:58:53 GMT 56.03889 -3.45434 4,975 132 303 -192
2017-11-13 21:58:51 GMT 56.04245 -3.46136 4,975 135 301 -256
2017-11-13 21:58:49 GMT 56.04312 -3.46258 4,975 137 300 -320
2017-11-13 21:58:46 GMT 56.04575 -3.46685 5,000 139 299 -320
2017-11-13 21:58:43 GMT 56.04987 -3.47280 5,025 141 296 -256
2017-11-13 21:58:41 GMT 56.05239 -3.47632 5,025 141 296 -256
2017-11-13 21:58:39 GMT 56.05444 -3.47925 5,025 141 296 -512
2017-11-13 21:58:37 GMT 56.05583 -3.48112 5,050 141 296 -512
2017-11-13 21:58:32 GMT 56.06063 -3.48790 5,075 141 297 -832
2017-11-13 21:58:30 GMT 56.06319 -3.49151 5,100 141 297 -1024
2017-11-13 21:58:28 GMT 56.06644 -3.49607 5,150 141 297 -1216
2017-11-13 21:58:26 GMT 56.06756 -3.49760 5,175 141 297 -1280
2017-11-13 21:58:23 GMT 56.07101 -3.50249 5,250 141 298 -1600
2017-11-13 21:58:20 GMT 56.07426 -3.50705 5,325 141 298 -1728
2017-11-13 21:58:17 GMT 56.07752 -3.51159 5,400 141 297 -1792
2017-11-13 21:58:16 GMT 56.07841 -3.51288 5,425 141 297 -1792
2017-11-13 21:58:15 GMT 56.07912 -3.51388 5,450 141 297 -1728
2017-11-13 21:58:13 GMT 56.08232 -3.51846 5,550 141 297 -1664
2017-11-13 21:58:09 GMT 56.08576 -3.52335 5,625 141 297 -1536
2017-11-13 21:58:06 GMT 56.08967 -3.52884 5,725 141 297 -1408
2017-11-13 21:58:02 GMT 56.09312 -3.53385 5,800 141 298 -1280
2017-11-13 21:58:00 GMT 56.09660 -3.53876 5,875 141 298 -1088
2017-11-13 21:57:57 GMT 56.09930 -3.54259 5,900 141 299 -704
2017-11-13 21:57:55 GMT 56.10155 -3.54584 5,925 141 299 -704
2017-11-13 21:57:52 GMT 56.10415 -3.54953 5,975 141 299 -448
2017-11-13 21:57:49 GMT 56.10741 -3.55416 6,000 141 300 -384
2017-11-13 21:57:46 GMT 56.11134 -3.55982 6,025 141 300 -448
2017-11-13 21:57:42 GMT 56.11523 -3.56540 6,050 141 300 -512
2017-11-13 21:57:37 GMT 56.12009 -3.57239 6,075 141 302 -512
2017-11-13 21:57:35 GMT 56.12265 -3.57605 6,100 141 302 -512
2017-11-13 21:57:31 GMT 56.12663 -3.58171 6,125 141 303 -512
2017-11-13 21:57:28 GMT 56.13057 -3.58737 6,150 141 304 -512
2017-11-13 21:57:26 GMT 56.13318 -3.59111 6,175 141 305 -448
2017-11-13 21:57:24 GMT 56.13460 -3.59311 6,200 141 305 -448
2017-11-13 21:57:22 GMT 56.13762 -3.59752 6,225 141 307 -448
2017-11-13 21:57:17 GMT 56.14358 -3.60601 6,250 141 310 -448
2017-11-13 21:57:15 GMT 56.14619 -3.60978 6,275 141 312 -448
2017-11-13 21:57:15 GMT 56.14549 -3.60876 6,275 141 310 -448
2017-11-13 21:57:12 GMT 56.14908 -3.61390 6,275 141 313 -448
2017-11-13 21:57:08 GMT 56.15245 -3.61875 6,300 141 315 -512
2017-11-13 21:57:06 GMT 56.15541 -3.62291 6,325 141 319 -512
2017-11-13 21:57:04 GMT 56.15735 -3.62574 6,350 141 320 -512
2017-11-13 21:57:04 GMT 56.15735 -3.62574 6,350 141 319 -512
2017-11-13 21:57:01 GMT 56.16009 -3.62957 6,350 141 321 -512
2017-11-13 21:56:57 GMT 56.16527 -3.63697 6,400 141 326 -512
2017-11-13 21:56:55 GMT 56.16760 -3.64022 6,425 141 328 -512
2017-11-13 21:56:54 GMT 56.16962 -3.64305 6,425 141 330 -512
2017-11-13 21:56:53 GMT 56.17035 -3.64420 6,425 141 330 -512
2017-11-13 21:56:51 GMT 56.17268 -3.64746 6,450 141 332 -512
2017-11-13 21:56:47 GMT 56.17808 -3.65510 6,500 141 336 -512
2017-11-13 21:56:44 GMT 56.18380 -3.66308 6,525 142 339 -512
2017-11-13 21:56:40 GMT 56.18594 -3.66617 6,550 142 341 -512
2017-11-13 21:56:37 GMT 56.19022 -3.67210 6,575 142 345 -448
2017-11-13 21:56:35 GMT 56.19214 -3.67476 6,575 142 347 -512
2017-11-13 21:56:33 GMT 56.19456 -3.67810 6,600 142 350 -512
2017-11-13 21:56:31 GMT 56.19781 -3.68267 6,625 142 353 -448
2017-11-13 21:56:26 GMT 56.20470 -3.69226 6,675 142 358 -512
2017-11-13 21:56:22 GMT 56.20917 -3.69848 6,700 142 360 -704
2017-11-13 21:56:20 GMT 56.21169 -3.70196 6,725 142 362 -896
2017-11-13 21:56:18 GMT 56.21481 -3.70634 6,750 142 365 -896
2017-11-13 21:56:16 GMT 56.21797 -3.71072 6,775 142 368 -896
2017-11-13 21:56:14 GMT 56.22053 -3.71424 6,800 142 370 -832
2017-11-13 21:56:12 GMT 56.22253 -3.71704 6,825 142 371 -832
2017-11-13 21:56:09 GMT 56.22693 -3.72303 6,875 142 374 -832
2017-11-13 21:56:07 GMT 56.22954 -3.72670 6,900 142 376 -832
2017-11-13 21:56:05 GMT 56.23222 -3.73037 6,925 142 378 -832
2017-11-13 21:56:02 GMT 56.23603 -3.73561 6,950 142 383 -640
2017-11-13 21:56:00 GMT 56.23965 -3.74051 7,000 142 397 128
2017-11-13 21:55:55 GMT 56.24786 -3.75175 6,975 142 394 0
2017-11-13 21:55:52 GMT 56.25042 -3.75518 7,000 142 397 64
2017-11-13 21:55:50 GMT 56.25321 -3.75895 7,000 142 398 128
2017-11-13 21:55:46 GMT 56.26103 -3.76960 7,000 142 398 192
2017-11-13 21:55:44 GMT 56.26136 -3.77003 7,000 142 398 192
2017-11-13 21:55:42 GMT 56.26573 -3.77595 7,000 143 399 128
2017-11-13 21:55:40 GMT 56.26826 -3.77938 6,975 143 399 192
2017-11-13 21:55:36 GMT 56.27551 -3.78917 6,975 143 402 64
2017-11-13 21:55:34 GMT 56.27612 -3.79003 6,975 143 402 64
2017-11-13 21:55:31 GMT 56.28204 -3.79794 6,975 143 403 0
2017-11-13 21:55:29 GMT 56.28374 -3.80019 6,975 143 403 64
2017-11-13 21:55:25 GMT 56.29015 -3.80876 6,975 143 402 -64
2017-11-13 21:55:22 GMT 56.29716 -3.81801 6,975 143 401 -64
2017-11-13 21:55:19 GMT 56.29846 -3.81972 7,000 143 399 -128
2017-11-13 21:55:14 GMT 56.30665 -3.83062 7,000 143 397 -128
2017-11-13 21:55:12 GMT 56.30889 -3.83363 7,000 143 395 -128
2017-11-13 21:55:10 GMT 56.31331 -3.83947 7,000 143 395 -128
2017-11-13 21:55:05 GMT 56.32015 -3.84865 7,025 143 394 -256
2017-11-13 21:55:03 GMT 56.32262 -3.85191 7,025 143 394 -256
2017-11-13 21:55:01 GMT 56.32640 -3.85687 7,025 143 394 -384
2017-11-13 21:54:59 GMT 56.32974 -3.86126 7,050 143 395 -512
2017-11-13 21:54:55 GMT 56.33552 -3.86890 7,100 143 396 -896
2017-11-13 21:54:53 GMT 56.33677 -3.87053 7,100 143 396 -896
2017-11-13 21:54:51 GMT 56.34296 -3.87878 7,150 143 397 -1216
2017-11-13 21:54:49 GMT 56.34403 -3.88017 7,175 143 398 -1280
2017-11-13 21:54:45 GMT 56.35002 -3.88808 7,275 143 401 -1600
2017-11-13 21:54:43 GMT 56.35286 -3.89191 7,325 143 401 -1792
2017-11-13 21:54:41 GMT 56.35609 -3.89620 7,400 143 402 -2112
2017-11-13 21:54:39 GMT 56.35861 -3.89955 7,450 143 402 -2176
2017-11-13 21:54:35 GMT 56.36655 -3.90997 7,600 143 403 -2496
2017-11-13 21:54:32 GMT 56.37015 -3.91474 7,725 143 403 -2816
2017-11-13 21:54:30 GMT 56.37243 -3.91783 7,800 143 404 -2880
2017-11-13 21:54:28 GMT 56.37681 -3.92366 7,900 143 404 -2816
2017-11-13 21:54:24 GMT 56.38137 -3.92967 8,100 143 405 -3008
2017-11-13 21:54:21 GMT 56.38551 -3.93525 8,225 143 406 -3072
2017-11-13 21:54:18 GMT 56.38975 -3.94092 8,375 143 406 -3264
2017-11-13 21:54:14 GMT 56.39580 -3.94907 8,600 143 405 -3456
2017-11-13 21:54:11 GMT 56.40093 -3.95591 8,800 143 405 -3392
2017-11-13 21:54:09 GMT 56.40514 -3.96157 8,950 143 406 -3392
2017-11-13 21:54:04 GMT 56.41118 -3.96981 9,175 143 406 -3328
2017-11-13 21:54:02 GMT 56.41489 -3.97482 9,250 143 406 -3136
2017-11-13 21:53:59 GMT 56.41951 -3.98105 9,475 143 407 -2816
2017-11-13 21:53:53 GMT 56.42881 -3.99362 9,750 143 408 -3072
2017-11-13 21:53:48 GMT 56.43560 -4.00280 9,975 143 408 -2944
2017-11-13 21:53:44 GMT 56.44044 -4.00932 10,150 143 410 -2368
2017-11-13 21:53:42 GMT 56.44501 -4.01542 10,250 143 411 -2304
2017-11-13 21:53:39 GMT 56.45022 -4.02237 10,375 143 413 -2304
2017-11-13 21:53:37 GMT 56.45218 -4.02494 10,425 143 414 -2368
2017-11-13 21:53:33 GMT 56.45809 -4.03284 10,575 143 416 -2624
2017-11-13 21:53:30 GMT 56.46208 -4.03822 10,700 143 416 -2880
2017-11-13 21:53:27 GMT 56.46735 -4.04529 10,875 143 417 -2944
2017-11-13 21:53:23 GMT 56.47429 -4.05456 11,075 143 418 -2880
2017-11-13 21:53:20 GMT 56.47787 -4.05945 11,200 143 420 -2816
2017-11-13 21:53:17 GMT 56.48323 -4.06661 11,350 143 420 -2560
2017-11-13 21:53:12 GMT 56.48950 -4.07510 11,525 143 421 -2240
2017-11-13 21:53:10 GMT 56.49385 -4.08092 11,650 143 423 -2112
2017-11-13 21:53:08 GMT 56.49912 -4.08800 11,725 143 423 -1984
2017-11-13 21:53:02 GMT 56.50627 -4.09764 11,900 143 425 -1216
2017-11-13 21:52:59 GMT 56.51060 -4.10348 11,950 143 425 -832
2017-11-13 21:52:57 GMT 56.51432 -4.10854 11,975 143 426 -384
2017-11-13 21:52:52 GMT 56.52370 -4.12112 12,000 143 428 0
2017-11-13 21:52:50 GMT 56.52578 -4.12391 12,000 143 428 0
2017-11-13 21:52:47 GMT 56.53116 -4.13119 12,000 143 428 64
2017-11-13 21:52:42 GMT 56.53830 -4.14082 12,000 143 428 128
2017-11-13 21:52:39 GMT 56.54306 -4.14717 12,000 143 428 128
2017-11-13 21:52:36 GMT 56.54742 -4.15309 12,000 143 428 128
2017-11-13 21:52:31 GMT 56.55552 -4.16408 12,000 143 428 64
2017-11-13 21:52:29 GMT 56.55826 -4.16773 12,000 143 428 0
2017-11-13 21:52:26 GMT 56.56334 -4.17464 12,000 143 428 0
2017-11-13 21:52:23 GMT 56.57014 -4.18382 12,000 143 430 0
2017-11-13 21:52:21 GMT 56.57181 -4.18604 12,000 143 430 0
2017-11-13 21:52:19 GMT 56.57556 -4.19103 12,000 143 430 0
2017-11-13 21:52:16 GMT 56.57996 -4.19703 12,000 143 429 64
2017-11-13 21:52:16 GMT 56.57996 -4.19703 12,000 143 429 64
2017-11-13 21:52:13 GMT 56.58440 -4.20302 12,000 143 429 0
2017-11-13 21:52:11 GMT 56.58710 -4.20660 12,000 143 428 0
2017-11-13 21:52:05 GMT 56.59621 -4.21902 12,000 143 428 0
2017-11-13 21:52:02 GMT 56.60165 -4.22639 12,000 143 428 0
2017-11-13 21:52:00 GMT 56.60366 -4.22912 12,000 143 428 -64
2017-11-13 21:51:58 GMT 56.60706 -4.23363 12,000 143 428 -64
2017-11-13 21:51:56 GMT 56.61436 -4.24356 12,000 143 428 0
2017-11-13 21:51:52 GMT 56.61818 -4.24871 12,000 143 427 0
2017-11-13 21:51:48 GMT 56.62322 -4.25557 12,000 143 426 -64
2017-11-13 21:51:45 GMT 56.62861 -4.26287 12,000 143 425 0
2017-11-13 21:51:42 GMT 56.63370 -4.26973 12,000 143 425 64
2017-11-13 21:51:39 GMT 56.64006 -4.27840 12,000 143 425 -64
2017-11-13 21:51:35 GMT 56.64411 -4.28387 12,000 143 425 -64
2017-11-13 21:51:32 GMT 56.65100 -4.29325 12,000 143 424 0
2017-11-13 21:51:28 GMT 56.65547 -4.29929 12,000 143 424 0
2017-11-13 21:51:24 GMT 56.66020 -4.30570 12,000 143 425 64
2017-11-13 21:51:21 GMT 56.66553 -4.31293 12,000 143 424 0
2017-11-13 21:51:18 GMT 56.67051 -4.31975 12,000 143 425 64
2017-11-13 21:51:14 GMT 56.67787 -4.32982 12,000 142 427 64
2017-11-13 21:51:11 GMT 56.68231 -4.33582 12,000 143 427 64
2017-11-13 21:51:08 GMT 56.68699 -4.34217 12,000 143 429 64
2017-11-13 21:51:04 GMT 56.69341 -4.35103 12,000 143 429 0
2017-11-13 21:51:01 GMT 56.69709 -4.35608 12,000 143 429 0
2017-11-13 21:50:59 GMT 56.70117 -4.36157 12,000 143 430 64
2017-11-13 21:50:57 GMT 56.70356 -4.36485 12,000 143 430 64
2017-11-13 21:50:54 GMT 56.71069 -4.37462 12,000 143 429 0
2017-11-13 21:50:51 GMT 56.71564 -4.38131 12,000 143 429 0
2017-11-13 21:50:45 GMT 56.72621 -4.39565 12,000 143 429 64
2017-11-13 21:50:43 GMT 56.72658 -4.39616 12,000 143 429 0
2017-11-13 21:50:41 GMT 56.72969 -4.40045 12,000 143 429 -64
2017-11-13 21:50:35 GMT 56.73816 -4.41195 12,000 143 429 0
2017-11-13 21:50:33 GMT 56.74285 -4.41828 12,000 143 428 0
2017-11-13 21:50:30 GMT 56.74626 -4.42294 12,000 143 427 64
2017-11-13 21:50:23 GMT 56.75835 -4.43951 12,000 143 427 64
2017-11-13 21:50:21 GMT 56.76240 -4.44503 12,000 143 427 64
2017-11-13 21:50:16 GMT 56.76948 -4.45469 11,975 143 427 0
2017-11-13 21:50:12 GMT 56.77516 -4.46249 12,000 142 428 -128
2017-11-13 21:50:10 GMT 56.77789 -4.46620 12,000 142 428 -128
2017-11-13 21:50:07 GMT 56.78395 -4.47454 12,000 142 428 -320
2017-11-13 21:50:03 GMT 56.79039 -4.48337 12,025 142 428 -576
2017-11-13 21:50:00 GMT 56.79437 -4.48886 12,050 142 429 -704
2017-11-13 21:49:55 GMT 56.80270 -4.50036 12,125 142 429 -1088
2017-11-13 21:49:52 GMT 56.80691 -4.50611 12,175 142 428 -1408
2017-11-13 21:49:50 GMT 56.81026 -4.51075 12,225 142 428 -1472
2017-11-13 21:49:47 GMT 56.81625 -4.51907 12,325 142 425 -2112
2017-11-13 21:49:42 GMT 56.82297 -4.52841 12,450 142 425 -2112
2017-11-13 21:49:39 GMT 56.82818 -4.53567 12,525 142 425 -2240
2017-11-13 21:49:36 GMT 56.83196 -4.54104 12,650 142 427 -2496
2017-11-13 21:49:32 GMT 56.83832 -4.54980 12,800 142 428 -2432
2017-11-13 21:49:30 GMT 56.84203 -4.55504 12,900 142 429 -2432
2017-11-13 21:49:25 GMT 56.84941 -4.56526 13,075 142 431 -2368
2017-11-13 21:49:23 GMT 56.85332 -4.57076 13,150 142 432 -2368
2017-11-13 21:49:21 GMT 56.85548 -4.57375 13,225 142 433 -2304
2017-11-13 21:49:19 GMT 56.85855 -4.57804 13,300 142 434 -2368
2017-11-13 21:49:15 GMT 56.86468 -4.58653 13,450 142 436 -2496
2017-11-13 21:49:11 GMT 56.87119 -4.59548 13,625 142 438 -2432
2017-11-13 21:49:07 GMT 56.87865 -4.60585 13,775 142 439 -2432
2017-11-13 21:49:02 GMT 56.88675 -4.61709 14,025 142 442 -2368
2017-11-13 21:49:00 GMT 56.88916 -4.62046 14,075 142 442 -2368
2017-11-13 21:48:53 GMT 56.90204 -4.63821 14,400 143 445 -2624
2017-11-13 21:48:50 GMT 56.90485 -4.64208 14,475 143 455 -2816
2017-11-13 21:48:48 GMT 56.90836 -4.64696 14,575 143 446 -2624
2017-11-13 21:48:41 GMT 56.91962 -4.66241 14,875 142 448 -3008
2017-11-13 21:48:39 GMT 56.92450 -4.66919 15,025 142 448 -3136
2017-11-13 21:48:32 GMT 56.93790 -4.68771 15,450 142 448 -3584
2017-11-13 21:48:30 GMT 56.93935 -4.68970 15,525 142 448 -3584
2017-11-13 21:48:28 GMT 56.94107 -4.69214 15,575 142 449 -3520
2017-11-13 21:48:20 GMT 56.95482 -4.71116 16,025 142 448 -3072
2017-11-13 21:48:18 GMT 56.95834 -4.71597 16,125 142 449 -3008
2017-11-13 21:48:10 GMT 56.97180 -4.73459 16,550 143 451 -3072
2017-11-13 21:48:06 GMT 56.97747 -4.74237 16,725 143 452 -2944
2017-11-13 21:48:00 GMT 56.98888 -4.75805 17,025 143 454 -2816
2017-11-13 21:47:54 GMT 56.99853 -4.77141 17,300 142 456 -2752
2017-11-13 21:47:51 GMT 57.00498 -4.78029 17,475 142 458 -2432
2017-11-13 21:47:49 GMT 57.00682 -4.78283 17,525 142 460 -2304
2017-11-13 21:47:46 GMT 57.01149 -4.78927 17,625 142 459 -2368
2017-11-13 21:47:41 GMT 57.02272 -4.80492 17,850 142 466 -2432
2017-11-13 21:47:39 GMT 57.02421 -4.80705 17,875 142 466 -2432
2017-11-13 21:47:37 GMT 57.02747 -4.81157 17,950 142 466 -2496
2017-11-13 21:47:32 GMT 57.03767 -4.82575 18,175 142 468 -2560
2017-11-13 21:47:30 GMT 57.04102 -4.83047 18,300 142 468 -2560
2017-11-13 21:47:28 GMT 57.04325 -4.83354 18,350 142 468 -2560
2017-11-13 21:47:24 GMT 57.05058 -4.84385 18,550 142 467 -2624
2017-11-13 21:47:20 GMT 57.05676 -4.85252 18,700 142 466 -2624
2017-11-13 21:47:18 GMT 57.05829 -4.85463 18,750 142 466 -2624
2017-11-13 21:47:16 GMT 57.06546 -4.86473 18,900 142 464 -2624
2017-11-13 21:47:14 GMT 57.06736 -4.86739 18,975 142 462 -2624
2017-11-13 21:47:10 GMT 57.07421 -4.87695 19,150 142 459 -2688
2017-11-13 21:47:08 GMT 57.07709 -4.88102 19,225 142 458 -2816
2017-11-13 21:47:05 GMT 57.08249 -4.88857 19,375 142 457 -3200
2017-11-13 21:47:03 GMT 57.08538 -4.89264 19,450 142 456 -3584
2017-11-13 21:46:58 GMT 57.09393 -4.90462 19,725 142 456 -3200
2017-11-13 21:46:56 GMT 57.09888 -4.91151 19,875 142 457 -2624
2017-11-13 21:46:50 GMT 57.10963 -4.92657 20,150 142 459 -2688
2017-11-13 21:46:47 GMT 57.11330 -4.93157 20,275 142 459 -2688
2017-11-13 21:46:43 GMT 57.11997 -4.94101 20,400 142 461 -3072
2017-11-13 21:46:38 GMT 57.12877 -4.95329 20,700 142 462 -3200
2017-11-13 21:46:36 GMT 57.12988 -4.95483 20,725 142 462 -3200
2017-11-13 21:46:27 GMT 57.14613 -4.97769 21,225 142 462 -3008
2017-11-13 21:46:23 GMT 57.15262 -4.98693 21,425 142 464 -2752
2017-11-13 21:46:19 GMT 57.16056 -4.99825 21,625 142 465 -2624
2017-11-13 21:46:17 GMT 57.16382 -5.00286 21,725 142 466 -2560
2017-11-13 21:46:16 GMT 57.16601 -5.00596 21,750 142 466 -2560
2017-11-13 21:46:15 GMT 57.16601 -5.00596 21,750 142 467 -2560
2017-11-13 21:46:07 GMT 57.18063 -5.02685 22,125 142 469 -2560
2017-11-13 21:46:05 GMT 57.18239 -5.02935 22,175 142 469 -2560
2017-11-13 21:45:58 GMT 57.19604 -5.04884 22,500 142 473 -2944
2017-11-13 21:45:56 GMT 57.20110 -5.05620 22,650 141 474 -3328
2017-11-13 21:45:50 GMT 57.20883 -5.06736 22,900 141 474 -3328
2017-11-13 21:45:48 GMT 57.21321 -5.07373 23,050 141 474 -3264
2017-11-13 21:45:45 GMT 57.21840 -5.08126 23,200 141 475 -2944
2017-11-13 21:45:39 GMT 57.22932 -5.09704 23,475 142 476 -2816
2017-11-13 21:45:37 GMT 57.23209 -5.10100 23,600 142 478 -2944
2017-11-13 21:45:35 GMT 57.23772 -5.10890 23,725 143 478 -3008
2017-11-13 21:45:27 GMT 57.25227 -5.12787 24,150 147 477 -3200
2017-11-13 21:45:25 GMT 57.25343 -5.12929 24,175 147 476 -3264
2017-11-13 21:45:18 GMT 57.26701 -5.14486 24,575 149 476 -3264
2017-11-13 21:45:15 GMT 57.27303 -5.15135 24,750 149 476 -3200
2017-11-13 21:45:11 GMT 57.28034 -5.15923 24,975 149 478 -3072
2017-11-13 21:45:07 GMT 57.28811 -5.16765 25,175 149 478 -2752
2017-11-13 21:45:05 GMT 57.29133 -5.17110 25,250 149 479 -2624
2017-11-13 21:45:02 GMT 57.29750 -5.17774 25,400 149 480 -2432
2017-11-13 21:44:57 GMT 57.30684 -5.18786 25,600 149 481 -1920
2017-11-13 21:44:55 GMT 57.30967 -5.19095 25,625 149 483 -1536
2017-11-13 21:44:51 GMT 57.31828 -5.20022 25,775 149 485 -896
2017-11-13 21:44:48 GMT 57.32321 -5.20557 25,825 149 484 -1024
2017-11-13 21:44:45 GMT 57.32941 -5.21221 25,900 149 486 -512
2017-11-13 21:44:42 GMT 57.33481 -5.21806 25,925 149 486 -448
2017-11-13 21:44:40 GMT 57.34140 -5.22520 25,950 149 488 -64
2017-11-13 21:44:36 GMT 57.34998 -5.23437 25,975 149 488 0
2017-11-13 21:44:34 GMT 57.35097 -5.23550 25,975 149 488 64
2017-11-13 21:44:31 GMT 57.35762 -5.24261 25,975 149 488 64
2017-11-13 21:44:26 GMT 57.36842 -5.25430 25,975 149 488 -64
2017-11-13 21:44:24 GMT 57.36921 -5.25519 25,975 149 487 -64
2017-11-13 21:44:15 GMT 57.38708 -5.27450 26,000 149 487 -64
2017-11-13 21:44:13 GMT 57.39086 -5.27849 26,000 149 486 64
2017-11-13 21:44:07 GMT 57.40487 -5.29364 26,000 149 486 128
2017-11-13 21:44:05 GMT 57.40780 -5.29683 26,000 149 484 0
2017-11-13 21:43:55 GMT 57.42675 -5.31729 26,000 149 483 -640
2017-11-13 21:43:45 GMT 57.44614 -5.33815 26,125 149 482 -1344
2017-11-13 21:43:35 GMT 57.46527 -5.35884 26,375 149 476 -1280
2017-11-13 21:43:27 GMT 57.48019 -5.37497 26,525 149 472 -1664
2017-11-13 21:43:25 GMT 57.48427 -5.37935 26,575 149 471 -1984
2017-11-13 21:43:16 GMT 57.49951 -5.39597 26,850 149 473 -2112
2017-11-13 21:43:14 GMT 57.50426 -5.40111 26,925 149 474 -2112
2017-11-13 21:43:04 GMT 57.52483 -5.42352 27,300 149 476 -2176
2017-11-13 21:42:56 GMT 57.53709 -5.43686 27,550 149 479 -2176
2017-11-13 21:42:54 GMT 57.54318 -5.44355 27,650 149 479 -2176
2017-11-13 21:42:45 GMT 57.56459 -5.46703 28,050 149 482 -2176
2017-11-13 21:42:43 GMT 57.56459 -5.46703 28,050 149 482 -2176
2017-11-13 21:42:34 GMT 57.58279 -5.48696 28,425 149 485 -2112
2017-11-13 21:42:31 GMT 57.58893 -5.49370 28,525 149 485 -2112
2017-11-13 21:42:25 GMT 57.59798 -5.50364 28,700 149 486 -2112
2017-11-13 21:42:22 GMT 57.60379 -5.50991 28,800 149 487 -2112
2017-11-13 21:42:14 GMT 57.62073 -5.52851 29,125 149 489 -2176
2017-11-13 21:42:03 GMT 57.64151 -5.55127 29,525 149 490 -2176
2017-11-13 21:41:54 GMT 57.66188 -5.57352 29,900 149 490 -2176
2017-11-13 21:41:42 GMT 57.68276 -5.59642 30,325 149 491 -2240
2017-11-13 21:41:33 GMT 57.70175 -5.61736 30,650 149 489 -2176
2017-11-13 21:41:22 GMT 57.72089 -5.63856 31,025 149 488 -2112
2017-11-13 21:41:14 GMT 57.73492 -5.65411 31,300 149 487 -2112
2017-11-13 21:41:12 GMT 57.74112 -5.66097 31,400 149 487 -2112
2017-11-13 21:41:10 GMT 57.74442 -5.66464 31,450 149 487 -2112
2017-11-13 21:41:03 GMT 57.75929 -5.68108 31,725 149 487 -2112
2017-11-13 21:40:54 GMT 57.77499 -5.69836 32,025 149 488 -2176
2017-11-13 21:40:52 GMT 57.77870 -5.70252 32,100 149 487 -2176
2017-11-13 21:40:43 GMT 57.79567 -5.72122 32,425 149 486 -2176
2017-11-13 21:40:41 GMT 57.80223 -5.72848 32,550 149 486 -2176
2017-11-13 21:40:33 GMT 57.81467 -5.74219 32,800 149 483 -2176
2017-11-13 21:40:31 GMT 57.81872 -5.74667 32,875 149 482 -2112
2017-11-13 21:40:28 GMT 57.82805 -5.75710 33,050 149 481 -2112
2017-11-13 21:40:22 GMT 57.83622 -5.76617 33,200 149 479 -2112
2017-11-13 21:40:19 GMT 57.84339 -5.77414 33,325 149 479 -2112
2017-11-13 21:40:13 GMT 57.85284 -5.78467 33,525 149 476 -2176
2017-11-13 21:40:10 GMT 57.86048 -5.79318 33,675 149 475 -2176
2017-11-13 21:40:02 GMT 57.87337 -5.80756 33,925 149 475 -2240
2017-11-13 21:40:00 GMT 57.87978 -5.81469 34,050 149 474 -2240
2017-11-13 21:39:52 GMT 57.89182 -5.82807 34,300 149 473 -2176
2017-11-13 21:39:50 GMT 57.89823 -5.83521 34,425 149 472 -2112
2017-11-13 21:39:42 GMT 57.91186 -5.85049 34,675 149 472 -2112
2017-11-13 21:39:40 GMT 57.91648 -5.85562 34,725 149 472 -2112
2017-11-13 21:39:37 GMT 57.92097 -5.86067 34,850 149 472 -2112
2017-11-13 21:39:32 GMT 57.93054 -5.87131 35,050 149 470 -2112
2017-11-13 21:39:29 GMT 57.93701 -5.87851 35,150 149 470 -2112
2017-11-13 21:39:25 GMT 57.94371 -5.88602 35,300 149 470 -2112
2017-11-13 21:39:20 GMT 57.95409 -5.89755 35,500 149 470 -2112
2017-11-13 21:39:15 GMT 57.96531 -5.90991 35,700 149 470 -2112
2017-11-13 21:39:10 GMT 57.97238 -5.91782 35,850 149 469 -2048
2017-11-13 21:39:02 GMT 57.98666 -5.93386 36,125 149 469 -2176
2017-11-13 21:39:00 GMT 57.99294 -5.94086 36,225 149 469 -2112
2017-11-13 21:38:57 GMT 57.99664 -5.94498 36,350 149 469 -2048
2017-11-13 21:38:50 GMT 58.01009 -5.96008 36,575 149 468 -1920
2017-11-13 21:38:39 GMT 58.02910 -5.98144 36,900 149 469 -1856
2017-11-13 21:38:37 GMT 58.03661 -5.98985 37,000 149 469 -1856
2017-11-13 21:38:30 GMT 58.04813 -6.00284 37,200 149 470 -1792
2017-11-13 21:38:26 GMT 58.05613 -6.01172 37,350 149 471 -1792
2017-11-13 21:38:19 GMT 58.06764 -6.02458 37,550 149 471 -1728
2017-11-13 21:38:12 GMT 58.08453 -6.04340 37,800 149 473 -1600
2017-11-13 21:38:09 GMT 58.08650 -6.04558 37,825 149 473 -1536
2017-11-13 21:37:59 GMT 58.10619 -6.06747 38,100 149 475 -1408
2017-11-13 21:37:49 GMT 58.12276 -6.08581 38,300 149 476 -1024
2017-11-13 21:37:46 GMT 58.13164 -6.09558 38,400 149 478 -832
2017-11-13 21:37:39 GMT 58.14427 -6.10955 38,500 149 480 -896
2017-11-13 21:37:34 GMT 58.15668 -6.12346 38,575 149 480 -896
2017-11-13 21:37:28 GMT 58.16414 -6.13193 38,650 146 483 0
2017-11-13 21:37:21 GMT 58.17507 -6.14456 38,750 148 482 -960
2017-11-13 21:37:19 GMT 58.18234 -6.15308 38,825 147 483 -1024
2017-11-13 21:37:17 GMT 58.18234 -6.15308 38,825 147 484 -960
2017-11-13 21:37:11 GMT 58.19677 -6.17056 38,950 147 485 -448
2017-11-13 21:37:07 GMT 58.20341 -6.17875 38,975 146 484 -192
2017-11-13 21:36:57 GMT 58.22191 -6.20152 39,000 146 483 -64
2017-11-13 21:36:47 GMT 58.24020 -6.22412 39,025 146 483 0
2017-11-13 21:36:43 GMT 58.24816 -6.23401 39,025 146 483 0
2017-11-13 21:36:38 GMT 58.25738 -6.24536 39,025 146 483 0
2017-11-13 21:36:36 GMT 58.26288 -6.25220 39,000 146 483 0
2017-11-13 21:36:26 GMT 58.27805 -6.27100 39,025 146 483 0
2017-11-13 21:36:16 GMT 58.29716 -6.29481 39,025 146 484 0
2017-11-13 21:36:07 GMT 58.31711 -6.31970 39,025 146 483 0
2017-11-13 21:36:05 GMT 58.32024 -6.32361 39,025 146 484 0
2017-11-13 21:35:57 GMT 58.33218 -6.33849 39,025 146 484 0
2017-11-13 21:35:55 GMT 58.33699 -6.34443 39,025 146 484 0
2017-11-13 21:35:48 GMT 58.35244 -6.36365 39,025 146 484 0
2017-11-13 21:35:45 GMT 58.35539 -6.36729 39,025 146 484 0
2017-11-13 21:35:37 GMT 58.37171 -6.38754 39,025 146 484 0
2017-11-13 21:35:35 GMT 58.37371 -6.39002 39,025 146 484 64
2017-11-13 21:35:27 GMT 58.38894 -6.40897 39,025 146 485 64
2017-11-13 21:35:25 GMT 58.39563 -6.41717 39,025 146 485 128
2017-11-13 21:35:14 GMT 58.41330 -6.43923 39,025 146 485 64
2017-11-13 21:35:06 GMT 58.42771 -6.45721 39,025 146 485 64
2017-11-13 21:35:04 GMT 58.43251 -6.46317 39,025 146 485 64
2017-11-13 21:34:56 GMT 58.44768 -6.48220 39,000 146 485 64
2017-11-13 21:34:54 GMT 58.45129 -6.48672 39,000 146 485 64
2017-11-13 21:34:45 GMT 58.46887 -6.50876 39,000 146 485 64
2017-11-13 21:34:43 GMT 58.47166 -6.51224 39,000 146 485 64
2017-11-13 21:34:33 GMT 58.48961 -6.53483 39,000 146 485 64
2017-11-13 21:34:25 GMT 58.50639 -6.55591 39,000 146 486 64
2017-11-13 21:34:23 GMT 58.50915 -6.55946 39,000 146 485 0
2017-11-13 21:34:17 GMT 58.52147 -6.57495 39,000 146 485 0
2017-11-13 21:34:13 GMT 58.52866 -6.58409 39,000 146 485 64
2017-11-13 21:34:07 GMT 58.54023 -6.59866 39,000 146 485 128
2017-11-13 21:34:02 GMT 58.54819 -6.60883 38,975 146 485 64
2017-11-13 21:33:54 GMT 58.56528 -6.63043 38,975 146 484 -128
2017-11-13 21:33:51 GMT 58.56802 -6.63397 39,000 146 484 -128
2017-11-13 21:33:41 GMT 58.58711 -6.65817 39,025 146 483 0
2017-11-13 21:33:31 GMT 58.60615 -6.68253 39,000 146 483 0
2017-11-13 21:33:21 GMT 58.62433 -6.70574 39,000 146 483 64
2017-11-13 21:33:11 GMT 58.64369 -6.73054 39,000 146 484 -64
2017-11-13 21:33:00 GMT 58.66388 -6.75633 39,025 146 483 0
2017-11-13 21:32:50 GMT 58.68212 -6.77957 39,000 146 484 64
2017-11-13 21:32:39 GMT 58.70200 -6.80493 39,000 146 484 0
2017-11-13 21:32:29 GMT 58.72023 -6.82809 39,000 146 483 128
2017-11-13 21:32:19 GMT 58.74106 -6.85464 39,000 146 482 64
2017-11-13 21:32:08 GMT 58.75935 -6.87790 39,000 146 479 64
2017-11-13 21:31:58 GMT 58.77823 -6.90189 39,000 146 477 128
2017-11-13 21:31:48 GMT 58.79695 -6.92582 38,975 146 474 64
2017-11-13 21:31:38 GMT 58.81563 -6.94958 38,975 146 472 -64
2017-11-13 21:31:27 GMT 58.83417 -6.97331 39,000 146 468 -128
2017-11-13 21:31:17 GMT 58.85216 -6.99646 39,000 146 465 256
2017-11-13 21:31:07 GMT 58.87116 -7.02109 38,975 146 465 0
2017-11-13 21:30:57 GMT 58.88896 -7.04434 39,000 145 465 0
2017-11-13 21:30:46 GMT 58.90686 -7.06769 39,000 146 466 0
2017-11-13 21:30:36 GMT 58.92587 -7.09253 38,975 146 466 0
2017-11-13 21:30:18 GMT 58.95676 -7.13297 39,000 145 468 0
2017-11-13 21:30:15 GMT 58.96278 -7.14092 39,000 145 468 0
2017-11-13 21:30:00 GMT 58.99072 -7.17758 39,025 145 469 0
2017-11-13 21:29:54 GMT 58.99979 -7.18945 39,025 145 469 0
2017-11-13 21:29:44 GMT 59.01939 -7.21508 39,025 146 470 0
2017-11-13 21:29:34 GMT 59.03736 -7.23857 39,025 146 470 -64
2017-11-13 21:29:19 GMT 59.06273 -7.27162 39,050 146 471 64
2017-11-13 21:29:13 GMT 59.07390 -7.28622 39,050 146 471 64
2017-11-13 21:29:03 GMT 59.09309 -7.31121 39,050 146 472 0
2017-11-13 21:28:42 GMT 59.13056 -7.36027 39,075 145 473 0
2017-11-13 21:28:30 GMT 59.15290 -7.38963 39,050 146 473 64
2017-11-13 21:28:22 GMT 59.16678 -7.40782 39,050 146 473 64
2017-11-13 21:28:11 GMT 59.18693 -7.43433 39,050 146 473 64
We lost coverage of the aircraft here for a total of 50 minutes
2017-11-13 20:37:43 GMT 63.14257 -18.38773 36,300 114 492 1216
2017-11-13 20:37:40 GMT 63.14543 -18.40149 36,275 114 492 512
2017-11-13 20:37:30 GMT 63.15547 -18.44985 36,200 114 489 448
2017-11-13 20:37:20 GMT 63.16445 -18.49316 36,125 114 486 576
2017-11-13 20:37:10 GMT 63.17404 -18.53922 36,025 114 484 1024
2017-11-13 20:37:00 GMT 63.18344 -18.58432 35,850 114 484 960
2017-11-13 20:36:49 GMT 63.19327 -18.63112 35,725 114 483 640
2017-11-13 20:36:38 GMT 63.20357 -18.68083 35,600 114 481 960
2017-11-13 20:36:28 GMT 63.21373 -18.72989 35,375 114 481 1664
2017-11-13 20:36:18 GMT 63.22229 -18.77120 35,100 114 483 1600
2017-11-13 20:36:07 GMT 63.23195 -18.81842 34,850 114 484 1536
2017-11-13 20:35:57 GMT 63.24156 -18.86553 34,575 114 486 1600
2017-11-13 20:35:46 GMT 63.25122 -18.91307 34,325 114 486 1408
2017-11-13 20:35:36 GMT 63.26123 -18.96229 34,075 114 487 960
2017-11-13 20:35:25 GMT 63.27092 -19.00975 33,950 114 485 768
2017-11-13 20:35:15 GMT 63.28075 -19.05779 33,825 114 482 576
2017-11-13 20:35:04 GMT 63.29028 -19.10489 33,725 114 480 768
2017-11-13 20:34:54 GMT 63.29973 -19.15159 33,500 113 479 1728
2017-11-13 20:34:43 GMT 63.30909 -19.19850 33,200 113 481 1984
2017-11-13 20:34:33 GMT 63.31856 -19.24583 32,800 113 485 2560
2017-11-13 20:34:22 GMT 63.32808 -19.29358 32,400 113 490 1856
2017-11-13 20:34:12 GMT 63.33749 -19.34066 32,125 113 492 1344
2017-11-13 20:34:01 GMT 63.34730 -19.38992 31,875 113 492 1408
2017-11-13 20:33:51 GMT 63.35706 -19.43915 31,625 113 491 1472
2017-11-13 20:33:40 GMT 63.36639 -19.48634 31,400 113 491 1280
2017-11-13 20:33:30 GMT 63.37578 -19.53359 31,175 113 490 1408
2017-11-13 20:33:19 GMT 63.38589 -19.58482 30,950 113 489 896
2017-11-13 20:33:09 GMT 63.39474 -19.62982 30,825 113 485 1088
2017-11-13 20:32:59 GMT 63.40434 -19.67852 30,650 113 483 896
2017-11-13 20:32:48 GMT 63.41363 -19.72606 30,500 113 480 1088
2017-11-13 20:32:38 GMT 63.42268 -19.77231 30,250 113 479 1664
2017-11-13 20:32:28 GMT 63.43153 -19.81775 30,000 113 478 1280
2017-11-13 20:32:17 GMT 63.44088 -19.86570 29,800 113 476 1152
2017-11-13 20:32:07 GMT 63.45000 -19.91283 29,575 113 474 1280
2017-11-13 20:31:56 GMT 63.45992 -19.96403 29,375 113 471 1216
2017-11-13 20:31:46 GMT 63.46755 -20.00336 29,175 113 469 1024
2017-11-13 20:31:36 GMT 63.47662 -20.05058 28,975 113 466 1344
2017-11-13 20:31:25 GMT 63.48566 -20.09773 28,700 113 465 1920
2017-11-13 20:31:15 GMT 63.49413 -20.14190 28,400 113 465 1536
2017-11-13 20:31:05 GMT 63.50294 -20.18812 28,100 113 464 1792
2017-11-13 20:30:54 GMT 63.51192 -20.23495 27,800 113 463 1344
2017-11-13 20:30:44 GMT 63.52020 -20.27812 27,575 113 461 1280
2017-11-13 20:30:34 GMT 63.52908 -20.32471 27,350 113 457 1280
2017-11-13 20:30:23 GMT 63.53751 -20.36897 27,125 113 454 1216
2017-11-13 20:30:13 GMT 63.54609 -20.41414 26,925 112 450 1344
2017-11-13 20:30:03 GMT 63.55440 -20.45792 26,650 112 449 1856
2017-11-13 20:29:52 GMT 63.56282 -20.50260 26,325 112 448 1728
2017-11-13 20:29:42 GMT 63.57104 -20.54630 26,025 112 447 1536
2017-11-13 20:29:31 GMT 63.57939 -20.59060 25,775 112 444 1344
2017-11-13 20:29:21 GMT 63.58784 -20.63562 25,550 112 439 1344
2017-11-13 20:29:10 GMT 63.59604 -20.67924 25,275 112 437 1792
2017-11-13 20:29:00 GMT 63.60479 -20.72604 24,925 112 435 1792
2017-11-13 20:28:50 GMT 63.61182 -20.76361 24,650 112 432 1408
2017-11-13 20:28:40 GMT 63.61982 -20.80668 24,375 112 429 1792
2017-11-13 20:28:29 GMT 63.62779 -20.84974 24,025 112 428 1984
2017-11-13 20:28:19 GMT 63.63551 -20.89171 23,650 112 427 2048
2017-11-13 20:28:08 GMT 63.64352 -20.93519 23,300 112 425 1856
2017-11-13 20:27:58 GMT 63.65140 -20.97776 22,975 112 422 1536
2017-11-13 20:27:48 GMT 63.65886 -21.01811 22,725 112 417 1536
2017-11-13 20:27:38 GMT 63.66638 -21.05892 22,450 112 414 1344
2017-11-13 20:27:27 GMT 63.67415 -21.10111 22,200 112 408 1472
2017-11-13 20:27:17 GMT 63.68147 -21.14108 21,925 112 403 1792
2017-11-13 20:27:07 GMT 63.68872 -21.18065 21,600 112 400 1856
2017-11-13 20:26:56 GMT 63.69603 -21.22083 21,250 112 397 1792
2017-11-13 20:26:45 GMT 63.70322 -21.26066 20,900 112 395 2240
2017-11-13 20:26:35 GMT 63.71023 -21.29952 20,500 112 392 2432
2017-11-13 20:26:25 GMT 63.71735 -21.33897 20,075 112 391 1984
2017-11-13 20:26:15 GMT 63.72427 -21.37749 19,725 112 388 1984
2017-11-13 20:26:04 GMT 63.73192 -21.42015 19,325 112 385 2176
2017-11-13 20:25:53 GMT 63.73853 -21.45685 18,950 112 383 1984
2017-11-13 20:25:43 GMT 63.74542 -21.49530 18,575 112 378 2176
2017-11-13 20:25:36 GMT 63.74986 -21.52032 18,300 111 377 2432
2017-11-13 20:25:32 GMT 63.75284 -21.53701 18,150 111 376 2304
2017-11-13 20:25:28 GMT 63.75513 -21.54968 17,975 112 375 2304
2017-11-13 20:25:22 GMT 63.75897 -21.57123 17,725 112 373 2112
2017-11-13 20:25:15 GMT 63.76353 -21.59648 17,475 112 371 1792
2017-11-13 20:25:12 GMT 63.76558 -21.60802 17,400 111 368 1728
2017-11-13 20:25:06 GMT 63.76923 -21.62849 17,200 111 366 1856
2017-11-13 20:25:01 GMT 63.77234 -21.64581 17,025 111 363 2240
2017-11-13 20:24:56 GMT 63.77512 -21.66152 16,850 111 362 2432
2017-11-13 20:24:51 GMT 63.77861 -21.68097 16,600 111 361 2496
2017-11-13 20:24:47 GMT 63.78122 -21.69578 16,400 112 360 2624
2017-11-13 20:24:40 GMT 63.78509 -21.71733 16,125 111 359 2816
2017-11-13 20:24:36 GMT 63.78783 -21.73294 15,900 111 358 2880
2017-11-13 20:24:30 GMT 63.79183 -21.75524 15,575 111 358 2688
2017-11-13 20:24:27 GMT 63.79340 -21.76402 15,450 111 358 2688
2017-11-13 20:24:20 GMT 63.79775 -21.78842 15,125 111 356 2496
2017-11-13 20:24:16 GMT 63.80022 -21.80258 14,950 111 355 2496
2017-11-13 20:24:09 GMT 63.80406 -21.82455 14,650 111 353 2816
2017-11-13 20:24:07 GMT 63.80575 -21.83401 14,525 111 353 3008
2017-11-13 20:23:59 GMT 63.81029 -21.86036 14,100 111 353 3520
2017-11-13 20:23:57 GMT 63.81230 -21.87188 13,950 111 353 3584
2017-11-13 20:23:49 GMT 63.81656 -21.89628 13,450 111 354 3456
2017-11-13 20:23:47 GMT 63.81758 -21.90223 13,350 111 355 3456
2017-11-13 20:23:38 GMT 63.82278 -21.93241 12,825 111 356 3392
2017-11-13 20:23:36 GMT 63.82382 -21.93827 12,725 111 356 3264
2017-11-13 20:23:28 GMT 63.82896 -21.96790 12,250 111 355 2944
2017-11-13 20:23:26 GMT 63.82987 -21.97310 12,175 111 355 2816
2017-11-13 20:23:18 GMT 63.83508 -22.00309 11,775 111 351 2368
2017-11-13 20:23:16 GMT 63.83638 -22.01045 11,700 111 351 2368
2017-11-13 20:23:06 GMT 63.84230 -22.04440 11,300 111 345 2048
2017-11-13 20:22:57 GMT 63.84728 -22.07280 11,025 111 337 1728
2017-11-13 20:22:55 GMT 63.84810 -22.07766 10,975 111 336 1600
2017-11-13 20:22:45 GMT 63.85423 -22.11263 10,725 111 322 1280
2017-11-13 20:22:36 GMT 63.85934 -22.14206 10,500 111 311 1856
2017-11-13 20:22:34 GMT 63.85971 -22.14426 10,450 111 310 1984
2017-11-13 20:22:25 GMT 63.86464 -22.17294 10,025 110 304 2880
2017-11-13 20:22:14 GMT 63.87007 -22.20506 9,475 110 298 3136

Making use of Plane Finder data

You are free to use the raw flight data, aircraft information and images provided in this report for your own purposes provided the data is correctly attributed to Plane Finder. We ask that you please credit Plane Finder and link to planefinder.net in close proximity to the content.

Optionally one of the following logos (no smaller then 150x24px) can be used and must link to planefinder.net

Embedding the Plane Finder map

You are welcome to embed the Plane Finder playback map on your website to offer visitors a more interactive experience. We suggest using the following HTML code:

<iframe src="//planefinder.net/data/report/U26942-G-EZAG-7700-squawk-2017-11-13/map" width="800" height="600" seamless="seamless"></iframe>

Where our data comes from

Plane Finder has a global network of data feeds and antenna radars that receive data broadcast directly from aircraft. The primary technologies used are ADS-B and MLAT. We also show feeds from the FAA and a FLARM glider feed.

Click here to find out more about the Plane Finder network.

How we collect our data